createdAt,value
2023-01-09T00:00:59.875Z,75.80
2023-01-09T00:03:31.857Z,76.20
2023-01-09T00:06:03.944Z,75.88
2023-01-09T00:08:35.963Z,75.85
2023-01-09T00:11:08.513Z,75.81
2023-01-09T00:13:40.535Z,75.89
2023-01-09T00:16:12.513Z,76.03
2023-01-09T00:18:44.749Z,75.67
2023-01-09T00:21:17.309Z,75.86
2023-01-09T00:23:49.634Z,75.66
2023-01-09T00:26:22.089Z,75.79
2023-01-09T00:28:54.562Z,75.91
2023-01-09T00:31:26.517Z,75.84
2023-01-09T00:33:58.461Z,76.21
2023-01-09T00:36:30.433Z,75.84
2023-01-09T00:39:02.515Z,76.03
2023-01-09T00:41:46.923Z,75.82
2023-01-09T00:44:23.901Z,76.04
2023-01-09T00:47:03.195Z,76.08
2023-01-09T00:49:37.114Z,75.97
2023-01-09T00:52:11.361Z,75.74
2023-01-09T00:54:44.050Z,75.73
2023-01-09T00:57:16.245Z,76.10
2023-01-09T00:59:48.225Z,76.00
2023-01-09T01:02:20.533Z,75.60
2023-01-09T01:05:11.182Z,75.77
2023-01-09T01:07:43.579Z,75.75
2023-01-09T01:10:20.557Z,75.81
2023-01-09T01:12:53.090Z,75.84
2023-01-09T01:15:26.998Z,76.38
2023-01-09T01:17:58.930Z,75.87
2023-01-09T01:20:30.853Z,75.65
2023-01-09T01:23:02.737Z,75.62
2023-01-09T01:25:37.661Z,75.59
2023-01-09T01:28:10.782Z,75.50
2023-01-09T01:30:43.738Z,75.29
2023-01-09T01:33:15.671Z,75.68
2023-01-09T01:35:47.536Z,75.63
2023-01-09T01:38:19.419Z,75.53
2023-01-09T01:40:55.057Z,76.42
2023-01-09T01:43:26.964Z,76.24
2023-01-09T01:45:59.067Z,75.82
2023-01-09T01:48:32.324Z,75.96
2023-01-09T01:51:06.990Z,75.70
2023-01-09T01:53:45.726Z,75.68
2023-01-09T01:56:26.060Z,75.73
2023-01-09T01:59:01.411Z,75.53
2023-01-09T02:01:34.466Z,75.58
2023-01-09T02:04:06.512Z,75.85
2023-01-09T02:06:39.311Z,76.28
2023-01-09T02:09:13.695Z,76.20
2023-01-09T02:11:47.047Z,76.07
2023-01-09T02:14:22.223Z,75.94
2023-01-09T02:17:26.621Z,75.91
2023-01-09T02:20:20.260Z,76.08
2023-01-09T02:23:13.855Z,76.48
2023-01-09T02:26:21.215Z,76.02
2023-01-09T02:28:58.810Z,76.79
2023-01-09T02:31:57.768Z,76.64
2023-01-09T02:34:41.624Z,76.35
2023-01-09T02:37:41.736Z,76.45
2023-01-09T02:40:21.730Z,77.10
2023-01-09T02:42:55.891Z,76.58
2023-01-09T02:45:27.830Z,76.64
2023-01-09T02:47:59.804Z,76.63
2023-01-09T02:50:51.110Z,76.63
2023-01-09T02:53:51.988Z,76.79
2023-01-09T02:56:45.470Z,77.63
2023-01-09T02:59:54.017Z,77.62
2023-01-09T03:02:42.477Z,77.21
2023-01-09T03:05:34.710Z,77.56
2023-01-09T03:08:16.164Z,77.12
2023-01-09T03:11:09.269Z,77.40
2023-01-09T03:13:50.937Z,77.68
2023-01-09T03:16:33.224Z,78.07
2023-01-09T03:19:10.927Z,77.30
2023-01-09T03:21:45.171Z,77.55
2023-01-09T03:24:17.139Z,77.63
2023-01-09T03:26:49.336Z,77.92
2023-01-09T03:29:22.118Z,78.02
2023-01-09T03:31:54.090Z,78.06
2023-01-09T03:34:25.972Z,77.63
2023-01-09T03:36:57.875Z,77.63
2023-01-09T03:39:29.801Z,77.78
2023-01-09T03:42:01.786Z,77.95
2023-01-09T03:44:33.651Z,78.42
2023-01-09T03:47:05.541Z,78.41
2023-01-09T03:49:37.406Z,78.72
2023-01-09T03:52:09.356Z,78.58
2023-01-09T03:54:41.323Z,78.45
2023-01-09T03:57:13.868Z,78.49
2023-01-09T03:59:45.819Z,79.27
2023-01-09T04:02:18.497Z,78.89
2023-01-09T04:04:50.426Z,78.64
2023-01-09T04:07:22.361Z,78.56
2023-01-09T04:09:54.367Z,78.59
2023-01-09T04:12:26.313Z,78.58
2023-01-09T04:14:58.478Z,78.25
2023-01-09T04:17:30.486Z,77.88
2023-01-09T04:20:02.539Z,77.78
2023-01-09T04:22:34.521Z,77.58
2023-01-09T04:25:06.939Z,77.41
2023-01-09T04:27:39.138Z,77.41
2023-01-09T04:30:11.669Z,77.75
2023-01-09T04:32:43.710Z,77.54
2023-01-09T04:35:15.649Z,77.95
2023-01-09T04:37:47.885Z,77.72
2023-01-09T04:40:20.097Z,77.36
2023-01-09T04:42:52.189Z,77.50
2023-01-09T04:45:24.137Z,77.35
2023-01-09T04:47:56.089Z,77.42
2023-01-09T04:50:28.043Z,77.89
2023-01-09T04:53:00.032Z,77.63
2023-01-09T04:55:32.117Z,77.70
2023-01-09T04:58:04.085Z,77.63
2023-01-09T05:00:36.101Z,77.76
2023-01-09T05:03:07.972Z,77.46
2023-01-09T05:05:39.797Z,77.84
2023-01-09T05:08:11.747Z,77.99
2023-01-09T05:10:43.689Z,77.74
2023-01-09T05:13:15.666Z,77.75
2023-01-09T05:15:47.607Z,77.61
2023-01-09T05:18:19.684Z,77.53
2023-01-09T05:20:51.711Z,77.21
2023-01-09T05:23:23.836Z,77.39
2023-01-09T05:25:55.791Z,77.26
2023-01-09T05:28:27.716Z,77.09
2023-01-09T05:30:59.713Z,77.07
2023-01-09T05:33:31.684Z,77.25
2023-01-09T05:36:03.605Z,77.18
2023-01-09T05:38:35.613Z,77.06
2023-01-09T05:41:07.941Z,77.29
2023-01-09T05:43:39.867Z,77.70
2023-01-09T05:46:11.873Z,77.36
2023-01-09T05:48:44.813Z,77.48
2023-01-09T05:51:16.707Z,77.31
2023-01-09T05:53:48.918Z,77.31
2023-01-09T05:56:20.789Z,77.35
2023-01-09T05:58:52.723Z,77.38
2023-01-09T06:01:24.671Z,77.41
2023-01-09T06:03:56.620Z,77.74
2023-01-09T06:06:29.277Z,77.88
2023-01-09T06:09:01.283Z,77.81
2023-01-09T06:11:36.154Z,78.06
2023-01-09T06:14:11.107Z,77.89
2023-01-09T06:16:43.066Z,78.06
2023-01-09T06:19:15.245Z,77.76
2023-01-09T06:21:47.338Z,77.79
2023-01-09T06:24:19.445Z,77.79
2023-01-09T06:26:51.359Z,77.63
2023-01-09T06:29:23.904Z,77.55
2023-01-09T06:31:55.891Z,77.74
2023-01-09T06:34:27.887Z,77.77
2023-01-09T06:37:00.005Z,77.30
2023-01-09T06:39:32.008Z,77.52
2023-01-09T06:42:04.160Z,77.49
2023-01-09T06:44:37.138Z,77.59
2023-01-09T06:47:09.198Z,77.84
2023-01-09T06:49:41.148Z,77.88
2023-01-09T06:52:13.094Z,78.38
2023-01-09T06:54:45.025Z,78.46
2023-01-09T06:57:16.973Z,77.84
2023-01-09T06:59:48.941Z,77.71
2023-01-09T07:02:22.462Z,77.72
2023-01-09T07:04:54.437Z,77.65
2023-01-09T07:07:26.465Z,78.06
2023-01-09T07:09:58.427Z,77.96
2023-01-09T07:12:33.350Z,77.85
2023-01-09T07:15:05.902Z,77.77
2023-01-09T07:17:37.851Z,78.18
2023-01-09T07:20:10.582Z,78.05
2023-01-09T07:22:42.521Z,77.96
2023-01-09T07:25:14.557Z,77.77
2023-01-09T07:27:46.558Z,77.98
2023-01-09T07:30:18.631Z,77.73
2023-01-09T07:32:50.487Z,77.76
2023-01-09T07:35:22.341Z,77.50
2023-01-09T07:37:54.235Z,77.45
2023-01-09T07:40:27.338Z,77.61
2023-01-09T07:42:59.188Z,77.55
2023-01-09T07:45:31.115Z,77.68
2023-01-09T07:48:02.942Z,77.99
2023-01-09T07:50:35.001Z,77.47
2023-01-09T07:53:06.938Z,77.72
2023-01-09T07:55:39.263Z,77.66
2023-01-09T07:58:11.246Z,77.41
2023-01-09T08:00:43.181Z,77.46
2023-01-09T08:03:15.162Z,77.40
2023-01-09T08:05:47.106Z,77.65
2023-01-09T08:08:19.078Z,77.33
2023-01-09T08:10:51.427Z,77.14
2023-01-09T08:13:23.440Z,76.96
2023-01-09T08:15:55.467Z,77.05
2023-01-09T08:18:27.560Z,76.88
2023-01-09T08:20:59.626Z,76.73
2023-01-09T08:23:31.590Z,76.90
2023-01-09T08:26:04.556Z,76.91
2023-01-09T08:28:36.705Z,76.42
2023-01-09T08:31:08.959Z,76.80
2023-01-09T08:33:40.987Z,76.58
2023-01-09T08:36:13.003Z,76.73
2023-01-09T08:38:44.877Z,76.83
2023-01-09T08:41:35.791Z,76.65
2023-01-09T08:44:26.061Z,76.67
2023-01-09T08:47:07.126Z,76.40
2023-01-09T08:49:39.815Z,76.41
2023-01-09T08:52:12.591Z,76.48
2023-01-09T08:54:44.533Z,76.53
2023-01-09T08:57:16.626Z,76.49
2023-01-09T08:59:48.899Z,76.22
2023-01-09T09:02:20.908Z,76.31
2023-01-09T09:04:53.736Z,76.50
2023-01-09T09:07:28.690Z,76.47
2023-01-09T09:10:00.617Z,76.25
2023-01-09T09:12:32.494Z,75.98
2023-01-09T09:15:13.691Z,76.21
2023-01-09T09:17:45.983Z,76.04
2023-01-09T09:20:17.986Z,75.82
2023-01-09T09:22:50.604Z,75.52
2023-01-09T09:25:23.116Z,75.62
2023-01-09T09:27:56.698Z,75.31
2023-01-09T09:30:28.823Z,75.12
2023-01-09T09:33:03.358Z,75.35
2023-01-09T09:35:35.571Z,75.11
2023-01-09T09:38:07.526Z,74.80
2023-01-09T09:41:39.661Z,74.44
2023-01-09T09:44:53.430Z,74.74
2023-01-09T09:47:56.475Z,74.80
2023-01-09T09:50:46.635Z,74.49
2023-01-09T09:53:31.309Z,74.54
2023-01-09T09:56:05.487Z,74.55
2023-01-09T09:58:41.131Z,74.43
2023-01-09T10:01:19.462Z,74.95
2023-01-09T10:03:56.074Z,74.89
2023-01-09T10:06:50.488Z,74.97
2023-01-09T10:09:48.042Z,75.02
2023-01-09T10:12:19.936Z,74.34
2023-01-09T10:14:51.908Z,75.28
2023-01-09T10:17:55.140Z,75.42
2023-01-09T10:20:49.457Z,75.66
2023-01-09T10:23:26.803Z,75.79
2023-01-09T10:26:10.503Z,76.19
2023-01-09T10:29:20.369Z,75.65
2023-01-09T10:31:58.627Z,76.17
2023-01-09T10:34:48.934Z,76.37
2023-01-09T10:37:36.719Z,76.59
2023-01-09T10:40:26.102Z,76.92
2023-01-09T10:43:09.970Z,77.62
2023-01-09T10:45:52.990Z,77.25
2023-01-09T10:48:32.614Z,77.07
2023-01-09T10:51:19.822Z,76.98
2023-01-09T10:53:54.711Z,77.05
2023-01-09T10:56:30.970Z,76.77
2023-01-09T10:59:03.206Z,76.54
2023-01-09T11:01:39.711Z,76.66
2023-01-09T11:04:34.647Z,77.03
2023-01-09T11:07:18.767Z,77.05
2023-01-09T11:09:58.542Z,77.32
2023-01-09T11:12:32.922Z,77.64
2023-01-09T11:15:16.959Z,77.32
2023-01-09T11:17:51.546Z,77.75
2023-01-09T11:20:23.509Z,77.43
2023-01-09T11:22:58.210Z,78.03
2023-01-09T11:25:30.172Z,78.10
2023-01-09T11:28:02.102Z,78.11
2023-01-09T11:30:38.187Z,78.43
2023-01-09T11:33:16.309Z,78.48
2023-01-09T11:35:58.228Z,78.45
2023-01-09T11:38:33.665Z,78.65
2023-01-09T11:41:07.094Z,78.41
2023-01-09T11:43:40.358Z,78.69
2023-01-09T11:46:41.904Z,78.56
2023-01-09T11:49:22.952Z,79.17
2023-01-09T11:52:06.109Z,79.25
2023-01-09T11:54:43.471Z,79.42
2023-01-09T11:57:16.061Z,79.28
2023-01-09T11:59:48.067Z,79.27
2023-01-09T12:02:41.563Z,79.82
2023-01-09T12:05:47.320Z,79.59
2023-01-09T12:08:29.126Z,79.65
2023-01-09T12:11:25.597Z,79.65
2023-01-09T12:14:24.716Z,79.72
2023-01-09T12:17:17.961Z,79.79
2023-01-09T12:20:14.357Z,79.84
2023-01-09T12:23:08.015Z,80.10
2023-01-09T12:26:04.854Z,80.36
2023-01-09T12:28:56.492Z,80.38
2023-01-09T12:31:50.174Z,80.45
2023-01-09T12:34:32.668Z,80.72
2023-01-09T12:37:18.404Z,80.53
2023-01-09T12:40:22.214Z,80.74
2023-01-09T12:43:12.873Z,80.40
2023-01-09T12:45:53.808Z,80.31
2023-01-09T12:48:59.781Z,80.40
2023-01-09T12:51:35.744Z,80.08
2023-01-09T12:54:13.432Z,80.19
2023-01-09T12:57:03.396Z,80.27
2023-01-09T12:59:57.454Z,80.37
2023-01-09T13:02:39.458Z,80.59
2023-01-09T13:05:18.738Z,80.55
2023-01-09T13:08:29.737Z,80.16
2023-01-09T13:11:19.285Z,80.48
2023-01-09T13:14:14.706Z,80.28
2023-01-09T13:16:53.884Z,79.98
2023-01-09T13:19:34.149Z,80.22
2023-01-09T13:22:07.955Z,80.25
2023-01-09T13:24:58.531Z,80.01
2023-01-09T13:27:39.406Z,80.23
2023-01-09T13:30:11.263Z,80.28
2023-01-09T13:33:12.420Z,80.13
2023-01-09T13:35:55.722Z,79.98
2023-01-09T13:38:31.010Z,80.13
2023-01-09T13:41:34.311Z,80.02
2023-01-09T13:44:08.093Z,80.04
2023-01-09T13:46:43.823Z,80.13
2023-01-09T13:50:09.567Z,80.32
2023-01-09T13:52:43.336Z,80.95
2023-01-09T13:55:15.269Z,80.89
2023-01-09T13:58:05.093Z,80.56
2023-01-09T14:00:37.328Z,80.80
2023-01-09T14:03:39.211Z,80.39
2023-01-09T14:06:14.537Z,80.97
2023-01-09T14:08:48.284Z,81.36
2023-01-09T14:11:22.814Z,80.99
2023-01-09T14:14:02.098Z,81.10
2023-01-09T14:16:36.436Z,81.25
2023-01-09T14:19:17.701Z,81.37
2023-01-09T14:21:54.842Z,81.47
2023-01-09T14:24:44.403Z,81.44
2023-01-09T14:27:54.120Z,81.28
2023-01-09T14:30:26.051Z,81.29
2023-01-09T14:33:19.515Z,81.29
2023-01-09T14:36:15.815Z,81.70
2023-01-09T14:39:09.932Z,79.99
2023-01-09T14:42:06.707Z,80.68
2023-01-09T14:44:47.753Z,80.72
2023-01-09T14:47:31.853Z,81.23
2023-01-09T14:50:11.908Z,81.03
2023-01-09T14:52:52.325Z,81.22
2023-01-09T14:55:34.872Z,80.91
2023-01-09T14:58:18.704Z,81.35
2023-01-09T15:01:17.249Z,81.38
2023-01-09T15:03:52.721Z,81.38
2023-01-09T15:06:30.220Z,81.33
2023-01-09T15:09:35.238Z,81.39
2023-01-09T15:12:11.177Z,81.53
2023-01-09T15:14:46.216Z,81.29
2023-01-09T15:17:24.433Z,81.01
2023-01-09T15:19:57.936Z,81.06
2023-01-09T15:22:34.968Z,81.15
2023-01-09T15:25:39.858Z,81.17
2023-01-09T15:28:40.589Z,81.18
2023-01-09T15:31:18.361Z,81.23
2023-01-09T15:33:53.850Z,81.55
2023-01-09T15:36:28.578Z,81.04
2023-01-09T15:39:00.800Z,81.20
2023-01-09T15:41:51.495Z,81.11
2023-01-09T15:44:26.731Z,81.43
2023-01-09T15:47:00.764Z,80.94
2023-01-09T15:49:34.189Z,81.30
2023-01-09T15:52:12.205Z,81.09
2023-01-09T15:54:49.516Z,81.36
2023-01-09T15:57:27.768Z,81.47
2023-01-09T16:00:33.788Z,81.41
2023-01-09T16:03:17.742Z,81.62
2023-01-09T16:05:51.782Z,81.22
2023-01-09T16:08:34.693Z,81.17
2023-01-09T16:11:22.701Z,81.12
2023-01-09T16:13:57.362Z,81.24
2023-01-09T16:16:34.066Z,81.36
2023-01-09T16:19:06.547Z,81.26
2023-01-09T16:21:38.794Z,81.29
2023-01-09T16:24:16.975Z,81.09
2023-01-09T16:26:52.963Z,81.04
2023-01-09T16:29:36.146Z,81.16
2023-01-09T16:32:19.879Z,80.92
2023-01-09T16:34:57.497Z,81.05
2023-01-09T16:37:29.895Z,81.14
2023-01-09T16:40:23.220Z,81.02
2023-01-09T16:43:03.763Z,80.84
2023-01-09T16:45:40.215Z,81.07
2023-01-09T16:48:16.024Z,80.82
2023-01-09T16:50:48.057Z,80.70
2023-01-09T16:53:32.281Z,80.91
2023-01-09T16:56:04.645Z,81.11
2023-01-09T16:58:36.750Z,80.99
2023-01-09T17:01:10.743Z,80.91
2023-01-09T17:03:44.197Z,81.03
2023-01-09T17:06:19.398Z,80.70
2023-01-09T17:08:51.966Z,80.98
2023-01-09T17:11:30.594Z,80.94
2023-01-09T17:14:02.790Z,80.77
2023-01-09T17:16:38.762Z,80.86
2023-01-09T17:19:18.069Z,80.75
2023-01-09T17:21:50.119Z,80.80
2023-01-09T17:24:40.927Z,81.07
2023-01-09T17:27:31.173Z,80.83
2023-01-09T17:30:17.629Z,80.76
2023-01-09T17:32:50.121Z,80.82
2023-01-09T17:35:21.989Z,80.77
2023-01-09T17:37:54.003Z,80.60
2023-01-09T17:40:27.753Z,80.94
2023-01-09T17:42:59.726Z,80.79
2023-01-09T17:45:31.677Z,80.87
2023-01-09T17:48:03.845Z,80.65
2023-01-09T17:50:36.750Z,80.47
2023-01-09T17:53:08.750Z,80.66
2023-01-09T17:55:42.177Z,80.74
2023-01-09T17:58:40.477Z,80.54
2023-01-09T18:01:14.883Z,80.54
2023-01-09T18:03:49.232Z,80.65
2023-01-09T18:06:22.689Z,80.44
2023-01-09T18:08:57.288Z,80.59
2023-01-09T18:11:30.313Z,80.86
2023-01-09T18:14:02.265Z,80.67
2023-01-09T18:16:34.823Z,80.78
2023-01-09T18:19:07.055Z,80.57
2023-01-09T18:21:38.970Z,80.86
2023-01-09T18:24:10.927Z,80.53
2023-01-09T18:26:43.079Z,80.64
2023-01-09T18:29:15.571Z,80.47
2023-01-09T18:31:48.452Z,80.65
2023-01-09T18:34:20.552Z,80.66
2023-01-09T18:36:52.499Z,80.53
2023-01-09T18:39:24.620Z,80.40
2023-01-09T18:41:56.609Z,80.30
2023-01-09T18:44:28.631Z,80.74
2023-01-09T18:47:02.006Z,80.51
2023-01-09T18:49:34.057Z,80.86
2023-01-09T18:52:07.631Z,80.59
2023-01-09T18:54:39.932Z,80.61
2023-01-09T18:57:12.423Z,80.71
2023-01-09T18:59:44.376Z,80.42
2023-01-09T19:02:20.431Z,80.43
2023-01-09T19:04:53.096Z,80.33
2023-01-09T19:07:25.066Z,80.24
2023-01-09T19:09:56.975Z,80.29
2023-01-09T19:12:28.897Z,80.56
2023-01-09T19:15:00.880Z,80.47
2023-01-09T19:17:33.721Z,80.50
2023-01-09T19:20:07.198Z,80.78
2023-01-09T19:22:39.331Z,80.69
2023-01-09T19:25:12.740Z,80.53
2023-01-09T19:27:44.678Z,80.82
2023-01-09T19:30:17.100Z,80.65
2023-01-09T19:32:49.105Z,80.44
2023-01-09T19:35:21.073Z,80.55
2023-01-09T19:37:53.017Z,80.56
2023-01-09T19:40:25.919Z,80.35
2023-01-09T19:42:58.405Z,80.62
2023-01-09T19:45:30.372Z,81.09
2023-01-09T19:48:02.379Z,80.77
2023-01-09T19:50:34.344Z,81.19
2023-01-09T19:53:06.312Z,80.68
2023-01-09T19:55:38.835Z,80.99
2023-01-09T19:58:11.436Z,80.86
2023-01-09T20:00:43.814Z,80.92
2023-01-09T20:03:15.795Z,81.43
2023-01-09T20:05:47.767Z,80.92
2023-01-09T20:08:19.760Z,81.27
2023-01-09T20:10:51.690Z,81.48
2023-01-09T20:13:23.728Z,81.31
2023-01-09T20:15:58.767Z,81.61
2023-01-09T20:18:32.657Z,81.33
2023-01-09T20:21:05.023Z,80.99
2023-01-09T20:23:37.915Z,81.13
2023-01-09T20:26:09.860Z,81.04
2023-01-09T20:28:41.811Z,80.99
2023-01-09T20:31:16.778Z,81.08
2023-01-09T20:33:51.120Z,81.43
2023-01-09T20:36:27.845Z,81.20
2023-01-09T20:39:02.119Z,81.34
2023-01-09T20:41:34.542Z,81.21
2023-01-09T20:44:09.977Z,81.44
2023-01-09T20:46:45.164Z,81.27
2023-01-09T20:49:20.911Z,81.40
2023-01-09T20:51:53.349Z,81.50
2023-01-09T20:54:25.568Z,81.51
2023-01-09T20:56:57.582Z,81.39
2023-01-09T20:59:29.726Z,81.27
2023-01-09T21:02:01.653Z,81.42
2023-01-09T21:04:33.735Z,80.98
2023-01-09T21:07:05.658Z,80.93
2023-01-09T21:09:37.615Z,81.03
2023-01-09T21:12:28.925Z,81.15
2023-01-09T21:15:11.985Z,81.60
2023-01-09T21:17:44.548Z,81.25
2023-01-09T21:20:16.569Z,81.14
2023-01-09T21:22:49.659Z,81.10
2023-01-09T21:25:21.536Z,81.13
2023-01-09T21:27:53.530Z,81.94
2023-01-09T21:30:25.566Z,82.07
2023-01-09T21:32:57.555Z,81.89
2023-01-09T21:35:29.525Z,81.86
2023-01-09T21:38:02.502Z,82.05
2023-01-09T21:40:34.486Z,81.85
2023-01-09T21:43:25.047Z,82.03
2023-01-09T21:46:19.826Z,81.95
2023-01-09T21:48:51.826Z,81.23
2023-01-09T21:51:24.012Z,81.68
2023-01-09T21:53:56.009Z,81.82
2023-01-09T21:56:28.171Z,81.50
2023-01-09T21:59:00.401Z,81.52
2023-01-09T22:01:32.420Z,81.65
2023-01-09T22:04:04.557Z,81.71
2023-01-09T22:06:36.667Z,81.43
2023-01-09T22:09:09.275Z,81.60
2023-01-09T22:11:42.198Z,81.53
2023-01-09T22:14:17.232Z,81.69
2023-01-09T22:16:49.177Z,81.51
2023-01-09T22:19:21.392Z,81.00
2023-01-09T22:21:53.376Z,80.67
2023-01-09T22:24:25.289Z,80.86
2023-01-09T22:26:57.234Z,80.70
2023-01-09T22:29:29.373Z,80.72
2023-01-09T22:32:01.614Z,80.55
2023-01-09T22:34:33.835Z,80.72
2023-01-09T22:37:08.557Z,80.88
2023-01-09T22:39:40.507Z,80.88
2023-01-09T22:42:12.457Z,80.54
2023-01-09T22:44:44.401Z,80.57
2023-01-09T22:47:18.456Z,80.48
2023-01-09T22:49:53.060Z,80.38
2023-01-09T22:52:25.426Z,80.52
2023-01-09T22:54:57.390Z,80.50
2023-01-09T22:57:29.495Z,80.55
2023-01-09T23:00:01.503Z,80.53
2023-01-09T23:02:33.613Z,80.61
2023-01-09T23:05:06.199Z,80.46
2023-01-09T23:07:38.150Z,80.70
2023-01-09T23:10:10.933Z,80.41
2023-01-09T23:12:47.979Z,80.92
2023-01-09T23:15:19.971Z,80.77
2023-01-09T23:17:52.134Z,80.79
2023-01-09T23:20:24.267Z,80.73
2023-01-09T23:22:58.305Z,80.63
2023-01-09T23:25:31.413Z,80.25
2023-01-09T23:28:21.533Z,80.08
2023-01-09T23:31:01.368Z,79.87
2023-01-09T23:33:46.420Z,80.29
2023-01-09T23:36:22.818Z,80.12
2023-01-09T23:38:57.509Z,80.45
2023-01-09T23:41:49.774Z,80.23
2023-01-09T23:44:21.792Z,80.23
2023-01-09T23:46:54.208Z,80.02
2023-01-09T23:49:29.235Z,80.12
2023-01-09T23:52:08.936Z,79.91
2023-01-09T23:54:44.042Z,79.88
2023-01-09T23:57:16.011Z,79.56
2023-01-09T23:59:49.369Z,79.71
